createdAt,value
2023-01-17T00:02:23.457Z,94871.47
2023-01-17T00:05:09.942Z,94876.66
2023-01-17T00:07:56.235Z,94876.78
2023-01-17T00:10:29.167Z,94882.03
2023-01-17T00:13:00.590Z,94875.78
2023-01-17T00:15:31.211Z,94879.59
2023-01-17T00:18:00.676Z,94886.53
2023-01-17T00:20:49.910Z,94890.94
2023-01-17T00:23:53.255Z,94896.50
2023-01-17T00:26:23.316Z,94896.69
2023-01-17T00:28:50.978Z,94909.88
2023-01-17T00:31:18.900Z,94906.06
2023-01-17T00:33:46.643Z,94916.47
2023-01-17T00:36:14.255Z,94903.78
2023-01-17T00:38:42.051Z,94917.13
2023-01-17T00:41:11.958Z,94922.00
2023-01-17T00:43:59.753Z,94924.00
2023-01-17T00:46:46.345Z,94931.91
2023-01-17T00:49:32.483Z,94935.91
2023-01-17T00:52:19.149Z,94933.81
2023-01-17T00:55:05.375Z,94936.66
2023-01-17T00:57:51.332Z,94942.09
2023-01-17T01:00:39.416Z,94941.66
2023-01-17T01:03:28.067Z,94944.16
2023-01-17T01:06:14.405Z,94962.50
2023-01-17T01:09:00.627Z,94969.50
2023-01-17T01:11:46.669Z,94967.88
2023-01-17T01:14:32.818Z,94976.78
2023-01-17T01:17:20.000Z,94976.69
2023-01-17T01:20:06.089Z,94986.59
2023-01-17T01:22:52.131Z,94988.13
2023-01-17T01:25:38.194Z,94985.34
2023-01-17T01:28:28.347Z,94990.28
2023-01-17T01:31:14.527Z,94993.84
2023-01-17T01:33:44.439Z,94994.72
2023-01-17T01:36:13.254Z,94999.47
2023-01-17T01:38:41.798Z,95004.16
2023-01-17T01:41:10.549Z,94998.63
2023-01-17T01:43:47.393Z,95005.56
2023-01-17T01:46:21.890Z,95000.97
2023-01-17T01:48:57.599Z,95001.75
2023-01-17T01:51:33.655Z,95000.50
2023-01-17T01:54:11.816Z,94999.34
2023-01-17T01:56:42.282Z,95002.81
2023-01-17T01:59:16.726Z,95010.88
2023-01-17T02:01:45.517Z,95007.50
2023-01-17T02:04:16.029Z,95010.56
2023-01-17T02:06:52.209Z,94997.41
2023-01-17T02:09:22.132Z,95002.28
2023-01-17T02:11:51.300Z,94987.28
2023-01-17T02:14:22.844Z,94988.75
2023-01-17T02:17:21.172Z,94988.13
2023-01-17T02:20:50.370Z,94986.06
2023-01-17T02:24:04.114Z,94983.00
2023-01-17T02:26:54.291Z,94979.03
2023-01-17T02:30:20.707Z,94978.56
2023-01-17T02:33:06.679Z,94988.38
2023-01-17T02:35:51.353Z,94987.00
2023-01-17T02:38:35.044Z,94986.06
2023-01-17T02:41:10.254Z,94985.81
2023-01-17T02:43:40.176Z,94978.78
2023-01-17T02:46:09.973Z,94995.59
2023-01-17T02:48:40.718Z,94994.22
2023-01-17T02:51:39.536Z,94996.19
2023-01-17T02:54:45.473Z,95000.25
2023-01-17T02:57:34.863Z,95004.56
2023-01-17T03:00:21.382Z,95003.78
2023-01-17T03:03:05.294Z,95009.19
2023-01-17T03:05:44.491Z,95004.06
2023-01-17T03:08:14.967Z,95010.06
2023-01-17T03:10:45.729Z,95008.69
2023-01-17T03:13:14.495Z,95010.75
2023-01-17T03:15:43.541Z,95003.66
2023-01-17T03:18:16.101Z,95005.81
2023-01-17T03:20:46.189Z,95008.66
2023-01-17T03:23:15.048Z,95018.00
2023-01-17T03:25:43.779Z,95021.03
2023-01-17T03:28:12.259Z,95014.69
2023-01-17T03:30:40.817Z,95029.81
2023-01-17T03:33:09.893Z,95029.81
2023-01-17T03:35:38.579Z,95029.31
2023-01-17T03:38:08.396Z,95032.97
2023-01-17T03:40:36.891Z,95031.59
2023-01-17T03:43:05.567Z,95037.00
2023-01-17T03:45:34.158Z,95044.88
2023-01-17T03:48:02.883Z,95052.88
2023-01-17T03:50:31.321Z,95049.75
2023-01-17T03:52:59.980Z,95046.03
2023-01-17T03:55:29.799Z,95050.66
2023-01-17T03:57:58.385Z,95056.91
2023-01-17T04:00:27.144Z,95061.53
2023-01-17T04:02:55.826Z,95060.13
2023-01-17T04:05:24.486Z,95052.41
2023-01-17T04:07:53.054Z,95057.28
2023-01-17T04:10:21.579Z,95046.44
2023-01-17T04:12:51.479Z,95049.22
2023-01-17T04:15:20.076Z,95044.19
2023-01-17T04:17:48.832Z,95057.28
2023-01-17T04:20:32.056Z,95053.81
2023-01-17T04:23:00.901Z,95059.88
2023-01-17T04:25:31.090Z,95063.09
2023-01-17T04:28:03.550Z,95067.59
2023-01-17T04:30:33.583Z,95063.16
2023-01-17T04:33:02.248Z,95067.00
2023-01-17T04:35:33.379Z,95074.22
2023-01-17T04:38:02.009Z,95069.78
2023-01-17T04:40:30.805Z,95076.66
2023-01-17T04:43:00.685Z,95083.47
2023-01-17T04:45:29.213Z,95077.31
2023-01-17T04:48:03.055Z,95084.22
2023-01-17T04:50:32.493Z,95083.81
2023-01-17T04:53:01.817Z,95067.94
2023-01-17T04:55:30.324Z,95074.25
2023-01-17T04:58:00.869Z,95079.38
2023-01-17T05:00:30.135Z,95072.94
2023-01-17T05:02:58.842Z,95070.00
2023-01-17T05:05:27.538Z,95069.91
2023-01-17T05:07:57.138Z,95074.25
2023-01-17T05:10:26.641Z,95072.09
2023-01-17T05:12:56.608Z,95076.59
2023-01-17T05:15:28.107Z,95078.00
2023-01-17T05:17:57.359Z,95086.84
2023-01-17T05:20:27.667Z,95088.41
2023-01-17T05:22:57.749Z,95094.91
2023-01-17T05:25:28.633Z,95097.16
2023-01-17T05:27:57.372Z,95098.91
2023-01-17T05:30:29.036Z,95104.53
2023-01-17T05:32:59.607Z,95099.50
2023-01-17T05:35:32.538Z,95100.75
2023-01-17T05:38:01.219Z,95105.22
2023-01-17T05:40:34.006Z,95109.88
2023-01-17T05:43:04.242Z,95113.09
2023-01-17T05:45:35.476Z,95117.41
2023-01-17T05:48:04.906Z,95114.47
2023-01-17T05:50:37.275Z,95118.53
2023-01-17T05:53:09.337Z,95121.56
2023-01-17T05:55:39.982Z,95126.06
2023-01-17T05:58:13.892Z,95129.81
2023-01-17T06:00:44.737Z,95130.38
2023-01-17T06:03:14.220Z,95132.66
2023-01-17T06:05:44.976Z,95129.19
2023-01-17T06:08:14.182Z,95142.25
2023-01-17T06:10:43.074Z,95141.09
2023-01-17T06:13:15.362Z,95147.91
2023-01-17T06:15:45.646Z,95151.78
2023-01-17T06:18:16.779Z,95144.81
2023-01-17T06:20:46.270Z,95153.16
2023-01-17T06:23:16.289Z,95151.75
2023-01-17T06:25:47.379Z,95152.38
2023-01-17T06:28:18.600Z,95148.25
2023-01-17T06:30:49.211Z,95162.19
2023-01-17T06:33:18.537Z,95168.53
2023-01-17T06:35:51.921Z,95167.81
2023-01-17T06:38:21.169Z,95165.19
2023-01-17T06:40:50.399Z,95169.34
2023-01-17T06:43:18.939Z,95184.88
2023-01-17T06:45:51.228Z,95177.81
2023-01-17T06:48:20.101Z,95176.28
2023-01-17T06:50:49.910Z,95176.41
2023-01-17T06:53:18.879Z,95171.06
2023-01-17T06:55:48.012Z,95169.47
2023-01-17T06:58:16.901Z,95172.75
2023-01-17T07:00:45.799Z,95172.69
2023-01-17T07:03:21.682Z,95182.13
2023-01-17T07:05:51.405Z,95171.03
2023-01-17T07:08:21.470Z,95180.47
2023-01-17T07:10:50.577Z,95169.38
2023-01-17T07:13:19.189Z,95168.22
2023-01-17T07:15:48.690Z,95174.03
2023-01-17T07:18:23.080Z,95174.50
2023-01-17T07:20:51.883Z,95171.94
2023-01-17T07:23:22.004Z,95177.28
2023-01-17T07:25:53.726Z,95173.63
2023-01-17T07:28:22.978Z,95177.38
2023-01-17T07:30:52.530Z,95174.97
2023-01-17T07:33:22.914Z,95160.88
2023-01-17T07:35:51.693Z,95161.59
2023-01-17T07:38:21.686Z,95166.31
2023-01-17T07:40:50.407Z,95163.16
2023-01-17T07:43:19.135Z,95158.91
2023-01-17T07:45:51.949Z,95158.34
2023-01-17T07:48:24.821Z,95159.34
2023-01-17T07:50:55.633Z,95151.28
2023-01-17T07:53:26.749Z,95149.97
2023-01-17T07:55:56.393Z,95156.81
2023-01-17T07:58:25.207Z,95165.50
2023-01-17T08:00:54.189Z,95158.00
2023-01-17T08:03:24.360Z,95160.41
2023-01-17T08:05:57.792Z,95146.75
2023-01-17T08:08:26.956Z,95149.09
2023-01-17T08:10:56.592Z,95135.38
2023-01-17T08:13:25.880Z,95132.56
2023-01-17T08:15:54.899Z,95133.53
2023-01-17T08:18:25.058Z,95131.00
2023-01-17T08:20:54.298Z,95130.44
2023-01-17T08:23:23.713Z,95131.69
2023-01-17T08:25:52.402Z,95138.06
2023-01-17T08:28:21.242Z,95141.06
2023-01-17T08:30:50.042Z,95146.78
2023-01-17T08:33:18.714Z,95143.81
2023-01-17T08:35:54.871Z,95139.44
2023-01-17T08:38:24.501Z,95142.25
2023-01-17T08:40:53.433Z,95137.47
2023-01-17T08:43:22.422Z,95136.44
2023-01-17T08:45:55.998Z,95119.78
2023-01-17T08:48:24.991Z,95122.22
2023-01-17T08:50:55.229Z,95119.59
2023-01-17T08:53:24.046Z,95121.53
2023-01-17T08:56:00.384Z,95124.81
2023-01-17T08:58:31.248Z,95128.03
2023-01-17T09:01:03.171Z,95139.47
2023-01-17T09:03:33.022Z,95141.66
2023-01-17T09:06:07.396Z,95139.47
2023-01-17T09:08:37.603Z,95132.53
2023-01-17T09:11:07.821Z,95133.59
2023-01-17T09:13:37.199Z,95131.75
2023-01-17T09:16:07.616Z,95134.88
2023-01-17T09:18:37.853Z,95117.94
2023-01-17T09:21:17.170Z,95123.63
2023-01-17T09:23:46.335Z,95120.13
2023-01-17T09:26:21.523Z,95111.88
2023-01-17T09:28:50.668Z,95104.75
2023-01-17T09:31:21.756Z,95107.97
2023-01-17T09:33:50.969Z,95118.19
2023-01-17T09:36:28.894Z,95117.75
2023-01-17T09:38:59.220Z,95124.72
2023-01-17T09:41:32.835Z,95112.97
2023-01-17T09:44:08.721Z,95126.13
2023-01-17T09:46:44.704Z,95120.66
2023-01-17T09:49:31.457Z,95122.22
2023-01-17T09:52:03.175Z,95123.13
2023-01-17T09:54:38.424Z,95128.97
2023-01-17T09:57:26.582Z,95127.78
2023-01-17T10:00:07.741Z,95140.88
2023-01-17T10:02:56.863Z,95132.94
2023-01-17T10:05:49.239Z,95127.44
2023-01-17T10:08:41.694Z,95131.00
2023-01-17T10:11:37.648Z,95132.13
2023-01-17T10:14:40.040Z,95123.91
2023-01-17T10:17:21.147Z,95109.41
2023-01-17T10:20:10.139Z,95104.94
2023-01-17T10:23:03.903Z,95093.13
2023-01-17T10:25:47.526Z,95082.44
2023-01-17T10:28:20.852Z,95075.38
2023-01-17T10:30:53.002Z,95073.75
2023-01-17T10:33:28.526Z,95061.69
2023-01-17T10:36:00.438Z,95060.75
2023-01-17T10:38:37.136Z,95046.94
2023-01-17T10:41:15.488Z,95044.41
2023-01-17T10:43:56.247Z,95032.47
2023-01-17T10:46:33.503Z,95020.50
2023-01-17T10:49:03.809Z,95013.13
2023-01-17T10:52:00.963Z,95005.97
2023-01-17T10:55:05.033Z,94987.13
2023-01-17T10:57:42.031Z,94990.53
2023-01-17T11:00:35.559Z,95001.16
2023-01-17T11:03:05.307Z,95004.47
2023-01-17T11:05:35.628Z,95005.69
2023-01-17T11:08:08.123Z,95008.88
2023-01-17T11:10:44.762Z,95010.13
2023-01-17T11:13:30.689Z,95007.69
2023-01-17T11:16:04.266Z,95003.47
2023-01-17T11:18:37.709Z,95014.28
2023-01-17T11:21:17.123Z,95011.75
2023-01-17T11:23:48.758Z,95007.50
2023-01-17T11:26:28.435Z,95000.56
2023-01-17T11:29:18.054Z,95000.94
2023-01-17T11:31:46.844Z,94990.25
2023-01-17T11:34:18.711Z,94988.41
2023-01-17T11:36:49.185Z,94985.72
2023-01-17T11:39:29.995Z,94978.59
2023-01-17T11:41:59.016Z,94981.75
2023-01-17T11:44:32.047Z,94973.56
2023-01-17T11:47:24.878Z,94975.22
2023-01-17T11:49:53.666Z,94967.28
2023-01-17T11:52:26.245Z,94953.00
2023-01-17T11:54:56.702Z,94945.00
2023-01-17T11:57:29.781Z,94935.78
2023-01-17T12:00:16.016Z,94936.31
2023-01-17T12:03:15.258Z,94934.78
2023-01-17T12:06:00.083Z,94933.53
2023-01-17T12:08:51.289Z,94928.31
2023-01-17T12:11:32.104Z,94933.84
2023-01-17T12:14:15.977Z,94923.22
2023-01-17T12:17:08.042Z,94921.38
2023-01-17T12:20:00.928Z,94908.56
2023-01-17T12:23:05.620Z,94915.19
2023-01-17T12:25:54.766Z,94914.53
2023-01-17T12:28:52.555Z,94914.38
2023-01-17T12:31:33.619Z,94914.97
2023-01-17T12:34:22.779Z,94917.88
2023-01-17T12:36:58.945Z,94910.75
2023-01-17T12:39:34.579Z,94907.88
2023-01-17T12:42:10.052Z,94910.88
2023-01-17T12:44:54.557Z,94899.78
2023-01-17T12:47:23.689Z,94901.38
2023-01-17T12:50:07.667Z,94895.00
2023-01-17T12:52:54.957Z,94893.59
2023-01-17T12:55:48.215Z,94897.34
2023-01-17T12:58:23.745Z,94888.75
2023-01-17T13:01:01.172Z,94881.72
2023-01-17T13:03:48.289Z,94885.91
2023-01-17T13:06:29.105Z,94893.34
2023-01-17T13:09:02.843Z,94886.75
2023-01-17T13:11:41.186Z,94883.06
2023-01-17T13:14:11.801Z,94876.22
2023-01-17T13:16:47.439Z,94868.50
2023-01-17T13:19:29.073Z,94863.25
2023-01-17T13:22:02.206Z,94858.38
2023-01-17T13:24:41.840Z,94852.53
2023-01-17T13:28:00.097Z,94853.41
2023-01-17T13:31:02.333Z,94852.09
2023-01-17T13:33:47.710Z,94845.91
2023-01-17T13:36:46.622Z,94840.53
2023-01-17T13:39:46.212Z,94854.41
2023-01-17T13:42:26.617Z,94860.06
2023-01-17T13:44:55.777Z,94850.47
2023-01-17T13:47:42.708Z,94847.53
2023-01-17T13:50:52.218Z,94848.75
2023-01-17T13:53:58.975Z,94840.97
2023-01-17T13:56:37.512Z,94832.00
2023-01-17T13:59:38.524Z,94839.69
2023-01-17T14:02:38.929Z,94840.25
2023-01-17T14:05:11.823Z,94840.09
2023-01-17T14:07:48.681Z,94839.69
2023-01-17T14:10:33.790Z,94844.59
2023-01-17T14:13:06.689Z,94844.47
2023-01-17T14:15:48.235Z,94837.28
2023-01-17T14:18:35.004Z,94829.94
2023-01-17T14:21:13.655Z,94833.50
2023-01-17T14:24:04.101Z,94820.59
2023-01-17T14:26:56.517Z,94822.06
2023-01-17T14:30:03.335Z,94828.03
2023-01-17T14:32:37.213Z,94823.25
2023-01-17T14:35:09.245Z,94823.91
2023-01-17T14:37:47.516Z,94812.25
2023-01-17T14:40:20.449Z,94821.53
2023-01-17T14:42:59.695Z,94821.50
2023-01-17T14:45:32.627Z,94823.47
2023-01-17T14:48:05.439Z,94813.97
2023-01-17T14:50:39.334Z,94803.56
2023-01-17T14:53:21.589Z,94810.19
2023-01-17T14:56:00.916Z,94798.84
2023-01-17T14:58:33.037Z,94798.84
2023-01-17T15:01:10.367Z,94795.88
2023-01-17T15:03:47.656Z,94779.47
2023-01-17T15:06:22.063Z,94778.63
2023-01-17T15:08:54.128Z,94768.09
2023-01-17T15:11:28.117Z,94766.19
2023-01-17T15:14:01.040Z,94751.34
2023-01-17T15:16:34.395Z,94752.28
2023-01-17T15:19:11.112Z,94752.25
2023-01-17T15:21:43.778Z,94762.25
2023-01-17T15:24:20.987Z,94763.38
2023-01-17T15:26:50.511Z,94765.31
2023-01-17T15:29:26.547Z,94768.53
2023-01-17T15:31:59.236Z,94782.97
2023-01-17T15:34:31.048Z,94780.47
2023-01-17T15:37:04.236Z,94774.69
2023-01-17T15:39:36.754Z,94771.56
2023-01-17T15:42:09.530Z,94762.53
2023-01-17T15:44:48.607Z,94761.16
2023-01-17T15:47:32.824Z,94752.88
2023-01-17T15:50:24.855Z,94758.94
2023-01-17T15:52:56.514Z,94760.66
2023-01-17T15:55:30.725Z,94760.06
2023-01-17T15:58:00.053Z,94749.06
2023-01-17T16:00:38.302Z,94745.06
2023-01-17T16:03:24.848Z,94742.13
2023-01-17T16:05:57.796Z,94742.91
2023-01-17T16:08:39.643Z,94746.19
2023-01-17T16:11:13.071Z,94747.50
2023-01-17T16:13:43.427Z,94738.66
2023-01-17T16:16:23.186Z,94741.88
2023-01-17T16:19:01.823Z,94743.25
2023-01-17T16:21:32.853Z,94738.25
2023-01-17T16:24:02.925Z,94739.97
2023-01-17T16:26:31.649Z,94734.00
2023-01-17T16:29:00.264Z,94728.00
2023-01-17T16:31:28.918Z,94723.44
2023-01-17T16:33:59.364Z,94739.13
2023-01-17T16:36:28.171Z,94734.41
2023-01-17T16:38:57.016Z,94724.09
2023-01-17T16:41:25.723Z,94723.03
2023-01-17T16:44:01.269Z,94714.03
2023-01-17T16:46:31.022Z,94711.25
2023-01-17T16:49:02.352Z,94701.81
2023-01-17T16:51:31.358Z,94697.66
2023-01-17T16:54:00.479Z,94694.66
2023-01-17T16:56:29.307Z,94689.88
2023-01-17T16:58:58.083Z,94679.91
2023-01-17T17:01:26.910Z,94685.69
2023-01-17T17:03:56.763Z,94677.19
2023-01-17T17:06:27.256Z,94680.91
2023-01-17T17:08:55.901Z,94683.09
2023-01-17T17:11:24.634Z,94687.47
2023-01-17T17:13:53.832Z,94689.66
2023-01-17T17:16:29.901Z,94691.84
2023-01-17T17:19:01.816Z,94693.41
2023-01-17T17:21:33.857Z,94692.31
2023-01-17T17:24:04.336Z,94681.81
2023-01-17T17:26:37.726Z,94684.06
2023-01-17T17:29:10.498Z,94686.47
2023-01-17T17:31:40.923Z,94689.06
2023-01-17T17:34:12.490Z,94682.69
2023-01-17T17:36:43.223Z,94688.50
2023-01-17T17:39:15.853Z,94694.38
2023-01-17T17:41:46.572Z,94692.72
2023-01-17T17:44:16.434Z,94691.41
2023-01-17T17:46:49.192Z,94689.66
2023-01-17T17:49:18.047Z,94691.53
2023-01-17T17:51:48.041Z,94688.97
2023-01-17T17:54:18.985Z,94688.56
2023-01-17T17:56:48.346Z,94696.13
2023-01-17T17:59:19.550Z,94691.44
2023-01-17T18:01:49.307Z,94691.44
2023-01-17T18:04:19.080Z,94696.09
2023-01-17T18:06:49.425Z,94697.44
2023-01-17T18:09:18.621Z,94693.84
2023-01-17T18:11:47.776Z,94701.63
2023-01-17T18:14:20.821Z,94704.53
2023-01-17T18:16:50.765Z,94707.50
2023-01-17T18:19:22.399Z,94710.97
2023-01-17T18:21:53.762Z,94710.03
2023-01-17T18:24:24.445Z,94712.66
2023-01-17T18:26:56.050Z,94717.16
2023-01-17T18:29:26.987Z,94717.84
2023-01-17T18:31:56.638Z,94727.34
2023-01-17T18:34:29.384Z,94734.81
2023-01-17T18:36:59.735Z,94732.47
2023-01-17T18:39:31.273Z,94734.84
2023-01-17T18:42:00.513Z,94737.59
2023-01-17T18:44:30.083Z,94734.66
2023-01-17T18:47:01.969Z,94731.28
2023-01-17T18:49:30.577Z,94725.31
2023-01-17T18:52:01.153Z,94727.28
2023-01-17T18:54:29.971Z,94732.81
2023-01-17T18:57:00.741Z,94732.47
2023-01-17T18:59:29.381Z,94730.13
2023-01-17T19:01:58.851Z,94733.41
2023-01-17T19:04:28.838Z,94742.84
2023-01-17T19:06:57.428Z,94745.03
2023-01-17T19:09:27.660Z,94743.84
2023-01-17T19:11:56.979Z,94741.56
2023-01-17T19:14:25.521Z,94741.09
2023-01-17T19:16:54.249Z,94740.34
2023-01-17T19:19:23.067Z,94749.38
2023-01-17T19:21:52.734Z,94744.09
2023-01-17T19:24:21.235Z,94755.31
2023-01-17T19:26:53.329Z,94759.25
2023-01-17T19:29:22.832Z,94763.81
2023-01-17T19:31:51.565Z,94760.53
2023-01-17T19:34:20.357Z,94764.59
2023-01-17T19:36:49.215Z,94767.63
2023-01-17T19:39:18.172Z,94780.00
2023-01-17T19:41:47.239Z,94767.97
2023-01-17T19:44:17.812Z,94767.78
2023-01-17T19:46:47.152Z,94779.66
2023-01-17T19:49:19.819Z,94776.81
2023-01-17T19:51:49.554Z,94777.06
2023-01-17T19:54:18.614Z,94773.63
2023-01-17T19:56:47.342Z,94772.44
2023-01-17T19:59:20.932Z,94775.47
2023-01-17T20:01:56.862Z,94774.53
2023-01-17T20:04:25.574Z,94783.13
2023-01-17T20:06:54.955Z,94781.38
2023-01-17T20:09:25.064Z,94790.78
2023-01-17T20:11:53.881Z,94794.84
2023-01-17T20:14:24.045Z,94796.97
2023-01-17T20:16:53.626Z,94786.25
2023-01-17T20:19:22.766Z,94792.31
2023-01-17T20:21:51.314Z,94785.88
2023-01-17T20:24:20.044Z,94799.75
2023-01-17T20:26:50.109Z,94795.53
2023-01-17T20:29:19.771Z,94797.84
2023-01-17T20:31:53.387Z,94795.63
2023-01-17T20:34:26.370Z,94803.44
2023-01-17T20:36:57.916Z,94803.56
2023-01-17T20:39:26.577Z,94810.69
2023-01-17T20:41:55.299Z,94811.53
2023-01-17T20:44:24.082Z,94806.59
2023-01-17T20:46:54.072Z,94806.50
2023-01-17T20:49:22.652Z,94811.63
2023-01-17T20:51:51.531Z,94808.28
2023-01-17T20:54:21.256Z,94812.19
2023-01-17T20:56:50.612Z,94813.53
2023-01-17T20:59:21.609Z,94813.72
2023-01-17T21:01:51.806Z,94804.88
2023-01-17T21:04:26.008Z,94805.09
2023-01-17T21:06:55.281Z,94811.84
2023-01-17T21:09:24.169Z,94806.81
2023-01-17T21:11:54.440Z,94806.97
2023-01-17T21:14:23.076Z,94802.97
2023-01-17T21:16:51.726Z,94797.56
2023-01-17T21:19:21.722Z,94792.97
2023-01-17T21:21:51.184Z,94796.25
2023-01-17T21:24:20.111Z,94789.91
2023-01-17T21:26:51.521Z,94783.97
2023-01-17T21:29:20.309Z,94794.41
2023-01-17T21:31:49.005Z,94795.16
2023-01-17T21:34:17.628Z,94783.28
2023-01-17T21:36:47.783Z,94787.66
2023-01-17T21:39:19.799Z,94790.28
2023-01-17T21:41:50.877Z,94787.91
2023-01-17T21:44:22.274Z,94806.97
2023-01-17T21:46:55.943Z,94808.00
2023-01-17T21:49:25.308Z,94801.41
2023-01-17T21:52:13.071Z,94801.75
2023-01-17T21:54:59.620Z,94802.53
2023-01-17T21:57:45.725Z,94805.63
2023-01-17T22:00:16.298Z,94797.50
2023-01-17T22:02:46.186Z,94807.31
2023-01-17T22:05:16.382Z,94812.00
2023-01-17T22:08:00.503Z,94812.09
2023-01-17T22:10:29.582Z,94814.66
2023-01-17T22:12:58.594Z,94814.69
2023-01-17T22:15:28.438Z,94813.16
2023-01-17T22:17:58.599Z,94818.19
2023-01-17T22:20:30.347Z,94815.38
2023-01-17T22:23:00.318Z,94821.03
2023-01-17T22:25:28.981Z,94818.16
2023-01-17T22:27:59.480Z,94818.97
2023-01-17T22:30:28.342Z,94821.75
2023-01-17T22:32:58.235Z,94812.56
2023-01-17T22:35:27.166Z,94808.13
2023-01-17T22:37:55.934Z,94812.91
2023-01-17T22:40:26.164Z,94822.03
2023-01-17T22:42:54.912Z,94824.44
2023-01-17T22:45:25.869Z,94821.78
2023-01-17T22:47:54.422Z,94822.56
2023-01-17T22:50:24.026Z,94824.69
2023-01-17T22:52:52.604Z,94824.06
2023-01-17T22:55:21.595Z,94824.22
2023-01-17T22:57:51.657Z,94829.22
2023-01-17T23:00:21.088Z,94823.75
2023-01-17T23:02:49.672Z,94820.03
2023-01-17T23:05:18.405Z,94822.53
2023-01-17T23:07:51.339Z,94829.66
2023-01-17T23:10:34.123Z,94828.72
2023-01-17T23:13:04.001Z,94826.34
2023-01-17T23:15:50.295Z,94825.31
2023-01-17T23:18:36.640Z,94818.25
2023-01-17T23:21:07.799Z,94828.31
2023-01-17T23:23:36.301Z,94828.97
2023-01-17T23:26:05.195Z,94829.50
2023-01-17T23:28:34.140Z,94829.34
2023-01-17T23:31:06.239Z,94828.44
2023-01-17T23:33:34.850Z,94827.63
2023-01-17T23:36:03.380Z,94837.13
2023-01-17T23:38:33.881Z,94826.22
2023-01-17T23:41:37.180Z,94829.16
2023-01-17T23:44:07.101Z,94829.81
2023-01-17T23:46:35.875Z,94819.66
2023-01-17T23:49:04.476Z,94824.63
2023-01-17T23:51:32.946Z,94822.78
2023-01-17T23:54:05.489Z,94818.47
2023-01-17T23:56:34.214Z,94817.44
2023-01-17T23:59:04.461Z,94807.66
